San Diego, California
Traffic Map
Current Weather Conditions
San Diego, California
Broken Clouds
Broken Clouds
19°
Feels Like: 19°
Wind Chill: 19° Ceiling: 2600
Heat Index: 19° Visibility: 10mi
Dew Point: 11° Wind: 6mph
Humidity: 60% Direction: ° ()
Pressure: 30.02in Gusts: 0mph
Raw Report DataKSAN 191651Z VRB05KT 10SM BKN026 BKN200 19/11 A3002 RMK AO2 SLP164 T01890111 $
Traffic Incident Summary
Active as of:
Severity:
Category:
InformationThere was an issue retrieving the traffic information for this location. Please try a different location or try again shortly.
Advertisements
At Last! Intellicast now available for iPhone and Android